Time;durP1;ratioP1;P1;durP2;ratioP2;P2;SDS_P1;SDS_P2;PMS_P1;PMS_P2;Temp;Humidity;BMP_temperature;BMP_pressure;BME280_temperature;BME280_humidity;BME280_pressure;Samples;Min_cycle;Max_cycle;Signal;HPM_P1;HPM_P2
2023/11/20 00:01:23;;;;;;;2.97;1.10;;;20.80;51.60;;;;;;5035759;28;20017;-59
2023/11/20 00:03:50;;;;;;;3.08;1.20;;;20.80;51.60;;;;;;5034551;28;20564;-59
2023/11/20 00:06:16;;;;;;;3.72;1.10;;;20.80;51.60;;;;;;5025829;28;20025;-60
2023/11/20 00:08:42;;;;;;;3.20;1.10;;;20.80;51.60;;;;;;5021456;28;20091;-58
2023/11/20 00:11:08;;;;;;;2.53;1.30;;;20.70;51.60;;;;;;5039581;28;20028;-58
2023/11/20 00:13:34;;;;;;;4.30;1.40;;;20.80;51.70;;;;;;5030143;28;20022;-59
2023/11/20 00:16:00;;;;;;;3.58;1.00;;;20.70;51.70;;;;;;5011382;28;20438;-60
2023/11/20 00:18:26;;;;;;;3.10;1.15;;;20.70;51.70;;;;;;5021243;28;20036;-60
2023/11/20 00:20:52;;;;;;;2.75;1.02;;;20.70;51.70;;;;;;5027836;28;20445;-59
2023/11/20 00:23:18;;;;;;;3.05;1.00;;;20.70;51.70;;;;;;5034446;28;20717;-60
2023/11/20 00:25:44;;;;;;;3.38;1.48;;;20.70;51.70;;;;;;5033481;28;20398;-58
2023/11/20 00:28:10;;;;;;;3.65;1.35;;;20.70;51.80;;;;;;5038359;28;20456;-60
2023/11/20 00:30:36;;;;;;;5.55;1.75;;;20.70;51.80;;;;;;5020061;28;20021;-58
2023/11/20 00:33:03;;;;;;;3.80;1.30;;;20.70;51.80;;;;;;5013456;28;20040;-59
2023/11/20 00:35:29;;;;;;;2.83;1.10;;;20.70;51.80;;;;;;5024588;28;20128;-60
2023/11/20 00:37:55;;;;;;;3.10;1.38;;;20.70;51.80;;;;;;5029895;28;20116;-59
2023/11/20 00:40:22;;;;;;;2.47;1.08;;;20.70;51.80;;;;;;5027939;28;20029;-60
2023/11/20 00:42:48;;;;;;;2.50;1.13;;;20.70;51.80;;;;;;5030741;28;20384;-59
2023/11/20 00:45:14;;;;;;;2.78;1.00;;;20.60;51.80;;;;;;5005534;28;20052;-59
2023/11/20 00:47:40;;;;;;;3.83;1.33;;;20.70;51.90;;;;;;5028992;28;20130;-60
2023/11/20 00:50:06;;;;;;;4.13;1.45;;;20.70;51.90;;;;;;5031941;28;20026;-59
2023/11/20 00:52:35;;;;;;;3.13;1.23;;;20.60;51.80;;;;;;5012963;28;20124;-58
2023/11/20 00:55:09;;;;;;;3.60;1.27;;;20.60;51.90;;;;;;5010655;28;20034;-60
2023/11/20 00:57:39;;;;;;;2.28;1.00;;;20.60;51.90;;;;;;5021389;28;20060;-57
2023/11/20 01:00:07;;;;;;;2.30;0.90;;;20.60;51.90;;;;;;5029935;28;20029;-58
2023/11/20 01:02:34;;;;;;;3.22;1.10;;;20.60;51.90;;;;;;5007224;28;20034;-59
2023/11/20 01:05:00;;;;;;;3.15;1.08;;;20.60;51.90;;;;;;5020580;28;20033;-59
2023/11/20 01:07:27;;;;;;;2.55;0.98;;;20.60;51.90;;;;;;5021607;28;20034;-60
2023/11/20 01:09:53;;;;;;;2.63;1.10;;;20.60;52.50;;;;;;5011213;28;20034;-60
2023/11/20 01:12:18;;;;;;;2.25;0.85;;;20.60;51.90;;;;;;5032594;28;20053;-62
2023/11/20 01:14:45;;;;;;;3.15;1.13;;;20.60;51.90;;;;;;5022693;28;20060;-59
2023/11/20 01:17:11;;;;;;;3.22;0.93;;;20.60;51.90;;;;;;5008948;28;20026;-60
2023/11/20 01:19:37;;;;;;;3.67;1.10;;;20.60;52.00;;;;;;5027754;28;20092;-61
2023/11/20 01:22:03;;;;;;;2.78;1.15;;;20.60;52.00;;;;;;5033135;28;20025;-58
2023/11/20 01:24:29;;;;;;;2.10;0.75;;;20.60;52.00;;;;;;5011575;28;20021;-58
2023/11/20 01:26:56;;;;;;;2.70;1.00;;;20.60;52.00;;;;;;5019158;28;20024;-58
2023/11/20 01:29:23;;;;;;;3.25;1.10;;;20.60;52.00;;;;;;5026612;28;20074;-59
2023/11/20 01:31:49;;;;;;;2.53;0.90;;;20.60;52.00;;;;;;5022574;28;20079;-60
2023/11/20 01:34:15;;;;;;;1.80;0.80;;;20.60;52.00;;;;;;5040446;28;20021;-59
2023/11/20 01:36:41;;;;;;;2.67;0.95;;;20.60;52.00;;;;;;5052885;28;20042;-60
2023/11/20 01:39:08;;;;;;;2.33;1.08;;;20.50;51.90;;;;;;5049570;28;20025;-59
2023/11/20 01:41:34;;;;;;;2.90;1.27;;;20.50;51.90;;;;;;5034711;28;20032;-57
2023/11/20 01:44:00;;;;;;;2.75;0.93;;;20.50;51.90;;;;;;5053868;28;20024;-58
2023/11/20 01:46:28;;;;;;;2.17;1.02;;;20.50;52.00;;;;;;5032730;28;20041;-60
2023/11/20 01:48:59;;;;;;;1.73;0.88;;;20.50;52.00;;;;;;5050731;28;20024;-60
2023/11/20 01:51:28;;;;;;;2.05;0.80;;;20.50;52.00;;;;;;5026266;28;20021;-57
2023/11/20 01:53:56;;;;;;;2.45;1.15;;;20.50;52.00;;;;;;5051532;28;20033;-59
2023/11/20 01:56:24;;;;;;;1.92;0.90;;;20.50;52.00;;;;;;5033835;28;20045;-56
2023/11/20 01:58:51;;;;;;;1.92;0.90;;;20.50;52.00;;;;;;5030881;28;20085;-59
2023/11/20 02:01:17;;;;;;;3.50;1.10;;;20.50;52.00;;;;;;5033618;28;20376;-63
2023/11/20 02:03:43;;;;;;;3.83;1.05;;;20.50;52.00;;;;;;5046237;28;20390;-61
2023/11/20 02:06:09;;;;;;;3.03;0.98;;;20.50;52.00;;;;;;5049833;28;20093;-60
2023/11/20 02:08:35;;;;;;;2.53;0.90;;;20.50;52.00;;;;;;5041192;28;20024;-59
2023/11/20 02:11:01;;;;;;;3.38;1.08;;;20.50;52.00;;;;;;5050702;28;20040;-59
2023/11/20 02:13:33;;;;;;;2.15;1.00;;;20.50;52.00;;;;;;5039356;28;20056;-59
2023/11/20 02:15:58;;;;;;;3.50;1.17;;;20.50;52.10;;;;;;5052357;28;20445;-58
2023/11/20 02:18:35;;;;;;;4.15;1.35;;;20.40;52.00;;;;;;5031891;28;20029;-59
2023/11/20 02:21:02;;;;;;;2.63;1.00;;;20.50;52.10;;;;;;5056471;28;20020;-59
2023/11/20 02:23:28;;;;;;;3.88;1.15;;;20.50;52.10;;;;;;5034808;28;20032;-60
2023/11/20 02:26:32;;;;;;;2.78;1.20;;;20.40;52.00;;;;;;5042044;28;20028;-61
2023/11/20 02:29:12;;;;;;;3.57;0.97;;;20.50;52.00;;;;;;5042398;28;20081;-57
2023/11/20 02:31:38;;;;;;;3.22;1.20;;;20.50;52.10;;;;;;5037985;28;20033;-61
2023/11/20 02:34:05;;;;;;;2.17;0.70;;;20.40;52.00;;;;;;5040587;28;20116;-60
2023/11/20 02:36:31;;;;;;;2.90;1.00;;;20.40;52.00;;;;;;5059489;28;20028;-59
2023/11/20 02:38:56;;;;;;;3.55;1.50;;;20.50;52.00;;;;;;5047858;28;20029;-59
2023/11/20 02:41:22;;;;;;;2.00;0.90;;;20.40;52.60;;;;;;5029131;28;20108;-57
2023/11/20 02:43:49;;;;;;;1.95;0.90;;;20.40;52.00;;;;;;5043023;28;20032;-57
2023/11/20 02:46:15;;;;;;;2.65;1.00;;;20.40;52.00;;;;;;5050700;28;20032;-59
2023/11/20 02:48:41;;;;;;;2.97;1.10;;;20.40;52.00;;;;;;5021119;28;20025;-58
2023/11/20 02:51:07;;;;;;;2.15;0.93;;;20.40;52.00;;;;;;5029404;28;20024;-58
2023/11/20 02:53:39;;;;;;;2.13;0.82;;;20.40;52.00;;;;;;5051078;28;20047;-56
2023/11/20 02:56:05;;;;;;;4.22;1.17;;;20.40;52.00;;;;;;5049759;28;20578;-58
2023/11/20 02:58:31;;;;;;;2.53;0.95;;;20.40;52.00;;;;;;5060805;28;20733;-61
2023/11/20 03:00:57;;;;;;;2.42;0.80;;;20.40;52.00;;;;;;5060641;28;20028;-59
2023/11/20 03:03:23;;;;;;;2.60;1.02;;;20.40;52.00;;;;;;5058503;28;20440;-60
2023/11/20 03:05:49;;;;;;;3.00;0.90;;;20.40;52.00;;;;;;5046268;28;20050;-59
2023/11/20 03:08:14;;;;;;;2.17;1.08;;;20.40;52.00;;;;;;5035910;28;20115;-58
2023/11/20 03:10:40;;;;;;;1.70;0.75;;;20.40;52.00;;;;;;5043214;28;20147;-59
2023/11/20 03:13:07;;;;;;;3.63;1.48;;;20.40;52.00;;;;;;5023500;28;20043;-58
2023/11/20 03:15:33;;;;;;;1.98;0.80;;;20.40;52.00;;;;;;5028371;28;20456;-59
2023/11/20 03:18:00;;;;;;;2.63;0.93;;;20.40;52.00;;;;;;5026577;28;20033;-59
2023/11/20 03:20:26;;;;;;;2.22;0.80;;;20.40;52.00;;;;;;5038720;28;20025;-60
2023/11/20 03:22:54;;;;;;;2.50;0.85;;;20.30;51.90;;;;;;5034497;28;20866;-60
2023/11/20 03:25:20;;;;;;;2.35;0.90;;;20.30;51.90;;;;;;5022832;28;20114;-59
2023/11/20 03:27:46;;;;;;;3.67;1.10;;;20.40;51.90;;;;;;5025600;28;20398;-59
2023/11/20 03:30:12;;;;;;;3.30;1.10;;;20.30;51.90;;;;;;5029534;28;20371;-59
2023/11/20 03:32:39;;;;;;;2.17;1.00;;;20.30;51.90;;;;;;5039398;28;20014;-59
2023/11/20 03:35:08;;;;;;;2.15;0.70;;;20.30;51.90;;;;;;5033190;28;20056;-57
2023/11/20 03:37:34;;;;;;;2.38;0.77;;;20.30;51.90;;;;;;5026937;28;20033;-60
2023/11/20 03:40:00;;;;;;;4.43;1.25;;;20.30;51.90;;;;;;5027248;28;20037;-60
2023/11/20 03:42:26;;;;;;;1.73;0.80;;;20.30;51.90;;;;;;4991020;28;20030;-59
2023/11/20 03:44:52;;;;;;;2.15;0.68;;;20.30;51.90;;;;;;5014395;28;20026;-60
2023/11/20 03:47:18;;;;;;;3.45;0.93;;;20.30;51.90;;;;;;5010468;28;20040;-59
2023/11/20 03:49:44;;;;;;;1.92;0.90;;;20.30;51.90;;;;;;5017608;28;20391;-59
2023/11/20 03:52:10;;;;;;;1.65;0.77;;;20.30;52.00;;;;;;5020747;28;20041;-58
2023/11/20 03:54:36;;;;;;;2.95;0.95;;;20.30;52.00;;;;;;5017628;28;20055;-58
2023/11/20 03:57:02;;;;;;;3.70;1.13;;;20.30;52.00;;;;;;5026195;28;20030;-60
2023/11/20 03:59:27;;;;;;;1.75;0.93;;;20.30;52.00;;;;;;5026358;28;20025;-59
2023/11/20 04:01:53;;;;;;;2.95;1.00;;;20.30;52.00;;;;;;5034946;28;20090;-58
2023/11/20 04:04:20;;;;;;;2.97;1.02;;;20.30;52.00;;;;;;5013431;28;20025;-59
2023/11/20 04:06:49;;;;;;;3.50;1.13;;;20.30;52.00;;;;;;5006477;28;20030;-59
2023/11/20 04:09:14;;;;;;;3.78;1.33;;;20.30;52.00;;;;;;5005450;28;20028;-59
2023/11/20 04:11:40;;;;;;;4.25;1.30;;;20.30;51.90;;;;;;5035883;28;20017;-59
2023/11/20 04:14:06;;;;;;;2.53;1.00;;;20.30;52.00;;;;;;5029993;28;20068;-59
2023/11/20 04:16:33;;;;;;;3.00;1.00;;;20.30;51.90;;;;;;5031136;28;20026;-58
2023/11/20 04:19:00;;;;;;;3.78;1.33;;;20.20;51.90;;;;;;5015179;28;20030;-60
2023/11/20 04:21:26;;;;;;;3.15;1.10;;;20.20;51.90;;;;;;5034289;28;20105;-55
2023/11/20 04:23:52;;;;;;;3.53;1.05;;;20.30;51.90;;;;;;5022446;28;20028;-58
2023/11/20 04:26:18;;;;;;;3.53;1.20;;;20.20;51.80;;;;;;5049611;28;20024;-59
2023/11/20 04:28:44;;;;;;;3.20;1.02;;;20.20;51.80;;;;;;5036440;28;21106;-59
2023/11/20 04:31:09;;;;;;;2.65;1.15;;;20.20;51.80;;;;;;5039298;28;20062;-59
2023/11/20 04:33:35;;;;;;;1.65;0.77;;;20.20;51.80;;;;;;5035478;28;20359;-60
2023/11/20 04:36:04;;;;;;;5.10;1.27;;;20.30;51.80;;;;;;5062432;28;20367;-59
2023/11/20 04:38:30;;;;;;;4.15;1.17;;;20.20;51.70;;;;;;5050526;28;20056;-59
2023/11/20 04:40:59;;;;;;;3.38;0.85;;;20.20;51.70;;;;;;5043719;28;20402;-57
2023/11/20 04:43:25;;;;;;;2.40;0.80;;;20.20;51.70;;;;;;5053576;28;20162;-58
2023/11/20 04:45:51;;;;;;;2.50;0.75;;;20.20;51.70;;;;;;5057731;28;20476;-58
2023/11/20 04:48:16;;;;;;;2.92;1.00;;;20.20;51.70;;;;;;5037985;28;20163;-58
2023/11/20 04:50:45;;;;;;;2.33;0.80;;;20.20;51.60;;;;;;5034045;28;20029;-59
2023/11/20 04:53:11;;;;;;;2.33;0.85;;;20.20;52.30;;;;;;5057691;28;20020;-59
2023/11/20 04:55:37;;;;;;;2.67;0.98;;;20.20;51.60;;;;;;5052412;28;21829;-60
2023/11/20 04:58:03;;;;;;;3.17;1.25;;;20.20;51.60;;;;;;5034388;28;20098;-60
2023/11/20 05:00:30;;;;;;;2.65;1.05;;;20.20;51.60;;;;;;5042911;28;20106;-59
2023/11/20 05:02:58;;;;;;;1.73;0.70;;;20.20;51.60;;;;;;5028609;28;20153;-58
2023/11/20 05:05:24;;;;;;;2.65;1.00;;;20.20;51.60;;;;;;5022565;28;20037;-58
2023/11/20 05:07:50;;;;;;;2.78;0.80;;;20.20;51.50;;;;;;5031325;28;20032;-59
2023/11/20 05:10:16;;;;;;;3.67;1.15;;;20.20;51.50;;;;;;5051115;28;20470;-60
2023/11/20 05:12:42;;;;;;;3.30;1.20;;;20.20;51.50;;;;;;5052195;28;20017;-60
2023/11/20 05:15:10;;;;;;;2.83;1.23;;;20.20;51.50;;;;;;5055118;28;20037;-60
2023/11/20 05:17:36;;;;;;;2.72;1.00;;;20.10;51.40;;;;;;5033456;28;20032;-59
2023/11/20 05:20:03;;;;;;;2.58;1.10;;;20.10;51.40;;;;;;5047656;28;20025;-60
2023/11/20 05:22:28;;;;;;;2.80;1.08;;;20.10;51.40;;;;;;5056841;28;20108;-60
2023/11/20 05:24:54;;;;;;;3.53;1.33;;;20.10;51.30;;;;;;5044992;28;20159;-61
2023/11/20 05:27:20;;;;;;;1.85;0.98;;;20.10;51.30;;;;;;5035164;28;20044;-60
2023/11/20 05:29:46;;;;;;;2.05;0.77;;;20.10;51.30;;;;;;5059522;28;20059;-60
2023/11/20 05:32:12;;;;;;;2.78;1.00;;;20.10;51.30;;;;;;5049278;28;20047;-60
2023/11/20 05:34:38;;;;;;;2.05;0.80;;;20.10;51.30;;;;;;5041273;28;20248;-60
2023/11/20 05:37:05;;;;;;;4.28;1.20;;;20.10;51.30;;;;;;5031176;28;20026;-56
2023/11/20 05:39:31;;;;;;;2.60;1.05;;;20.10;51.20;;;;;;5014614;28;20355;-59
2023/11/20 05:41:56;;;;;;;2.85;0.95;;;20.10;51.20;;;;;;5026443;28;20104;-58
2023/11/20 05:44:22;;;;;;;3.40;1.20;;;20.10;51.20;;;;;;5027273;28;20027;-58
2023/11/20 05:46:48;;;;;;;2.85;1.00;;;20.10;51.20;;;;;;5029135;28;20132;-60
2023/11/20 05:49:14;;;;;;;2.38;0.98;;;20.10;51.20;;;;;;5033387;28;20359;-59
2023/11/20 05:51:43;;;;;;;2.20;0.93;;;20.10;51.20;;;;;;5019955;28;20025;-60
2023/11/20 05:54:09;;;;;;;3.20;1.00;;;20.10;51.20;;;;;;5012391;28;20026;-58
2023/11/20 05:56:38;;;;;;;2.63;1.20;;;20.10;51.20;;;;;;5034615;28;20494;-60
2023/11/20 05:59:04;;;;;;;3.03;1.00;;;20.10;51.10;;;;;;5022042;28;20032;-60
2023/11/20 06:01:40;;;;;;;3.45;1.08;;;20.10;51.10;;;;;;5023994;28;20021;-58
2023/11/20 06:04:08;;;;;;;3.03;1.05;;;20.10;51.10;;;;;;5003183;28;20090;-59
2023/11/20 06:06:40;;;;;;;4.68;0.90;;;20.10;51.10;;;;;;5031135;28;20379;-58
2023/11/20 06:09:10;;;;;;;3.13;1.15;;;20.10;51.10;;;;;;5026639;28;20048;-57
2023/11/20 06:11:40;;;;;;;2.80;0.90;;;20.10;51.10;;;;;;5024415;28;20071;-59
2023/11/20 06:14:10;;;;;;;2.60;1.20;;;20.10;51.10;;;;;;5022403;28;20024;-57
2023/11/20 06:16:36;;;;;;;4.07;1.10;;;20.10;51.10;;;;;;5025753;28;21883;-59
2023/11/20 06:19:02;;;;;;;3.05;1.08;;;20.10;51.10;;;;;;5026013;28;20025;-56
2023/11/20 06:21:28;;;;;;;3.60;1.05;;;20.00;51.00;;;;;;5038586;28;20877;-60
2023/11/20 06:23:55;;;;;;;4.50;1.35;;;20.10;51.10;;;;;;5020022;28;20025;-57
2023/11/20 06:26:21;;;;;;;3.47;1.13;;;20.00;51.00;;;;;;5039260;28;20035;-59
2023/11/20 06:28:47;;;;;;;2.28;1.00;;;20.00;51.00;;;;;;5022129;28;20452;-59
2023/11/20 06:31:13;;;;;;;3.17;1.02;;;20.10;51.10;;;;;;5037143;28;20034;-59
2023/11/20 06:33:38;;;;;;;2.30;0.82;;;20.00;51.00;;;;;;5018575;28;20045;-58
2023/11/20 06:36:08;;;;;;;3.30;0.90;;;20.00;51.00;;;;;;5021934;28;20368;-60
2023/11/20 06:38:35;;;;;;;4.95;1.10;;;20.00;51.00;;;;;;5031636;28;20451;-58
2023/11/20 06:41:03;;;;;;;2.03;0.85;;;20.00;51.00;;;;;;5027477;28;20102;-59
2023/11/20 06:43:30;;;;;;;3.15;1.00;;;20.00;51.00;;;;;;5014314;28;20169;-59
2023/11/20 06:45:56;;;;;;;3.38;1.15;;;20.00;51.00;;;;;;5045077;28;20025;-56
2023/11/20 06:48:22;;;;;;;3.10;1.08;;;20.00;51.00;;;;;;5038752;28;20038;-61
2023/11/20 06:50:48;;;;;;;5.45;1.17;;;20.00;51.00;;;;;;5038497;28;20116;-60
2023/11/20 06:53:14;;;;;;;3.55;0.93;;;20.00;51.00;;;;;;5033388;28;20036;-58
2023/11/20 06:55:42;;;;;;;2.30;0.90;;;20.00;51.00;;;;;;5040275;28;20029;-59
2023/11/20 06:58:09;;;;;;;3.63;1.20;;;20.00;50.90;;;;;;5036307;28;20041;-59
2023/11/20 07:00:36;;;;;;;2.33;1.20;;;20.00;50.90;;;;;;5033337;28;20104;-59
2023/11/20 07:03:04;;;;;;;3.03;0.88;;;20.00;50.90;;;;;;5028885;28;20513;-59
2023/11/20 07:05:30;;;;;;;3.70;1.20;;;20.00;50.90;;;;;;5026005;28;20032;-59
2023/11/20 07:08:00;;;;;;;3.40;1.10;;;20.00;50.90;;;;;;5002504;28;20448;-58
2023/11/20 07:10:26;;;;;;;2.78;1.10;;;20.00;50.90;;;;;;5024207;28;20439;-59
2023/11/20 07:12:53;;;;;;;2.85;1.05;;;20.00;50.90;;;;;;5028232;28;20025;-59
2023/11/20 07:15:24;;;;;;;2.58;1.10;;;20.00;50.90;;;;;;5014981;28;20124;-61
2023/11/20 07:17:50;;;;;;;3.05;1.08;;;20.00;50.80;;;;;;5006736;28;20037;-60
2023/11/20 07:20:17;;;;;;;2.95;1.05;;;20.00;50.90;;;;;;5026543;28;20025;-58
2023/11/20 07:22:45;;;;;;;3.92;1.20;;;20.00;50.80;;;;;;5028625;28;20029;-59
2023/11/20 07:25:17;;;;;;;3.03;1.00;;;20.00;50.90;;;;;;5008318;28;20037;-59
2023/11/20 07:27:42;;;;;;;5.50;1.48;;;20.00;50.90;;;;;;5023966;28;20033;-59
2023/11/20 07:30:09;;;;;;;3.63;1.40;;;20.00;50.90;;;;;;5028194;28;20321;-60
2023/11/20 07:32:38;;;;;;;2.53;1.10;;;20.00;50.90;;;;;;5005294;28;20025;-59
2023/11/20 07:35:05;;;;;;;2.65;0.95;;;20.00;50.90;;;;;;5024782;28;20042;-59
2023/11/20 07:37:32;;;;;;;3.60;1.23;;;20.00;51.00;;;;;;5031817;28;20026;-60
2023/11/20 07:40:02;;;;;;;3.10;1.08;;;20.00;50.90;;;;;;5005728;28;20044;-59
2023/11/20 07:42:28;;;;;;;4.10;1.23;;;20.00;50.90;;;;;;5003543;28;20030;-57
2023/11/20 07:44:54;;;;;;;2.80;1.20;;;20.00;50.90;;;;;;5034273;28;20035;-60
2023/11/20 07:47:20;;;;;;;3.78;1.02;;;20.00;50.90;;;;;;5027672;28;20022;-59
2023/11/20 07:49:46;;;;;;;2.58;1.10;;;20.00;50.90;;;;;;5031308;28;20036;-62
2023/11/20 07:52:12;;;;;;;5.05;1.33;;;20.00;50.90;;;;;;5015048;28;20028;-60
2023/11/20 07:54:41;;;;;;;2.92;1.00;;;20.00;50.90;;;;;;5029638;28;20070;-59
2023/11/20 07:57:09;;;;;;;4.82;1.38;;;20.00;50.90;;;;;;5016548;28;20104;-58
2023/11/20 07:59:35;;;;;;;3.92;1.40;;;19.90;50.80;;;;;;5031525;28;20022;-57
2023/11/20 08:02:01;;;;;;;3.83;1.20;;;20.00;51.50;;;;;;5029668;28;20021;-60
2023/11/20 08:04:27;;;;;;;3.75;1.33;;;19.90;50.80;;;;;;5023906;28;20337;-60
2023/11/20 08:06:53;;;;;;;2.28;0.85;;;20.00;50.90;;;;;;5021827;28;20079;-60
2023/11/20 08:09:19;;;;;;;2.80;1.08;;;20.00;50.90;;;;;;5006468;28;20415;-57
2023/11/20 08:11:45;;;;;;;4.22;1.13;;;20.00;50.90;;;;;;5023343;28;20037;-58
2023/11/20 08:14:15;;;;;;;2.67;1.02;;;20.00;50.90;;;;;;5025204;28;20118;-59
2023/11/20 08:16:41;;;;;;;3.75;1.10;;;20.00;50.90;;;;;;5020834;28;20112;-60
2023/11/20 08:19:10;;;;;;;3.80;1.40;;;20.00;50.90;;;;;;5025294;28;20025;-61
2023/11/20 08:21:36;;;;;;;5.45;1.50;;;20.00;50.90;;;;;;5008403;28;20033;-60
2023/11/20 08:24:02;;;;;;;4.65;1.23;;;20.00;50.90;;;;;;5001554;28;20040;-58
2023/11/20 08:26:28;;;;;;;2.75;1.15;;;20.00;50.80;;;;;;5028145;28;20025;-60
2023/11/20 08:28:54;;;;;;;3.55;1.25;;;20.00;50.80;;;;;;5025496;28;20053;-59
2023/11/20 08:31:20;;;;;;;2.88;1.20;;;20.00;50.80;;;;;;5023265;28;20429;-59
2023/11/20 08:33:46;;;;;;;2.75;0.98;;;20.00;50.80;;;;;;5009232;28;20045;-58
2023/11/20 08:36:13;;;;;;;3.45;1.63;;;20.00;50.80;;;;;;5033216;28;20053;-59
2023/11/20 08:38:42;;;;;;;4.65;1.60;;;20.00;50.70;;;;;;5011436;28;20046;-59
2023/11/20 08:41:09;;;;;;;2.88;1.02;;;20.00;50.70;;;;;;5004363;28;20034;-58
2023/11/20 08:43:35;;;;;;;3.83;1.33;;;20.00;50.70;;;;;;5031862;28;20117;-60
2023/11/20 08:46:01;;;;;;;2.40;1.10;;;20.00;50.70;;;;;;5024149;28;20116;-59
2023/11/20 08:48:27;;;;;;;5.13;1.40;;;20.00;50.60;;;;;;5036408;28;20105;-57
2023/11/20 08:50:54;;;;;;;3.75;1.25;;;20.00;50.60;;;;;;5031265;28;20141;-61
2023/11/20 08:53:21;;;;;;;2.80;1.00;;;20.00;50.60;;;;;;5013992;28;20028;-62
2023/11/20 08:55:48;;;;;;;2.75;1.25;;;20.00;50.60;;;;;;5023349;28;20021;-60
2023/11/20 08:58:16;;;;;;;4.15;1.52;;;20.00;50.50;;;;;;5002579;28;20071;-61
2023/11/20 09:00:43;;;;;;;3.63;1.10;;;20.00;50.50;;;;;;5026157;28;20092;-61
2023/11/20 09:03:11;;;;;;;4.55;1.65;;;20.00;50.50;;;;;;5022954;28;20538;-61
2023/11/20 09:05:38;;;;;;;4.82;1.70;;;20.00;50.40;;;;;;5009662;28;20030;-62
2023/11/20 09:08:06;;;;;;;3.83;1.42;;;20.00;50.40;;;;;;5008576;28;20356;-62
2023/11/20 09:10:32;;;;;;;3.78;1.17;;;20.00;50.40;;;;;;5020745;28;20095;-62
2023/11/20 09:12:58;;;;;;;5.38;1.65;;;20.00;50.40;;;;;;5021142;28;20108;-61
2023/11/20 09:15:26;;;;;;;4.97;1.50;;;20.00;50.30;;;;;;5026219;28;20033;-63
2023/11/20 09:17:53;;;;;;;6.07;1.58;;;20.00;50.30;;;;;;5021528;28;20360;-62
2023/11/20 09:20:21;;;;;;;5.65;1.48;;;20.00;50.30;;;;;;5025521;28;20786;-62
2023/11/20 09:22:48;;;;;;;3.63;1.30;;;20.00;50.20;;;;;;5031718;28;20026;-61
2023/11/20 09:25:15;;;;;;;4.68;1.50;;;20.00;50.20;;;;;;5030451;28;20022;-61
2023/11/20 09:27:41;;;;;;;3.95;1.30;;;20.00;50.20;;;;;;5031903;28;20337;-61
2023/11/20 09:30:12;;;;;;;3.47;1.33;;;20.00;50.20;;;;;;5029642;28;20029;-61
2023/11/20 09:32:40;;;;;;;4.22;1.70;;;20.00;50.20;;;;;;5032336;28;20033;-61
2023/11/20 09:35:08;;;;;;;4.05;1.42;;;20.00;50.20;;;;;;5029379;28;20526;-61
2023/11/20 09:37:34;;;;;;;3.47;1.20;;;20.00;50.10;;;;;;5029441;28;20033;-61
2023/11/20 09:40:04;;;;;;;3.85;1.25;;;20.00;50.10;;;;;;5024488;28;20026;-62
2023/11/20 09:42:30;;;;;;;4.63;1.35;;;20.00;50.10;;;;;;5015620;28;20025;-61
2023/11/20 09:45:00;;;;;;;4.38;1.35;;;20.00;50.10;;;;;;5033517;28;20076;-61
2023/11/20 09:47:31;;;;;;;3.65;1.05;;;20.00;50.00;;;;;;5025669;28;20030;-61
2023/11/20 09:49:59;;;;;;;4.22;1.40;;;20.00;50.00;;;;;;5027645;28;20025;-60
2023/11/20 09:52:26;;;;;;;3.45;1.33;;;20.00;50.00;;;;;;5014884;28;20493;-60
2023/11/20 09:54:58;;;;;;;4.65;1.30;;;20.00;50.00;;;;;;5014836;28;20100;-61
2023/11/20 09:57:26;;;;;;;4.60;1.65;;;20.00;49.90;;;;;;5030691;28;20029;-60
2023/11/20 09:59:53;;;;;;;3.40;1.30;;;20.00;50.00;;;;;;5028980;28;20045;-62
2023/11/20 10:02:20;;;;;;;3.58;1.05;;;20.00;49.90;;;;;;5014258;28;20036;-60
2023/11/20 10:04:53;;;;;;;4.00;1.30;;;20.00;49.90;;;;;;5030617;28;20036;-59
2023/11/20 10:07:23;;;;;;;5.53;1.45;;;20.00;49.90;;;;;;5018938;28;20029;-62
2023/11/20 10:09:53;;;;;;;4.07;1.23;;;20.00;49.90;;;;;;5012565;28;20040;-61
2023/11/20 10:12:20;;;;;;;4.95;1.60;;;20.00;49.80;;;;;;5029224;28;20037;-62
2023/11/20 10:14:46;;;;;;;2.25;1.02;;;20.00;49.80;;;;;;5009998;28;20044;-60
2023/11/20 10:17:14;;;;;;;5.78;1.80;;;20.10;49.80;;;;;;5024847;28;20026;-61
2023/11/20 10:19:42;;;;;;;4.50;1.70;;;20.00;49.80;;;;;;5005019;28;20338;-60
2023/11/20 10:22:09;;;;;;;4.38;1.83;;;20.10;49.80;;;;;;5031056;28;20060;-60
2023/11/20 10:24:43;;;;;;;4.25;1.27;;;20.10;49.80;;;;;;5030428;28;20456;-61
2023/11/20 10:27:10;;;;;;;3.95;1.50;;;20.10;49.70;;;;;;5031326;28;20018;-61
2023/11/20 10:29:35;;;;;;;3.38;1.38;;;20.10;49.70;;;;;;5030239;28;20353;-61
2023/11/20 10:32:02;;;;;;;3.97;1.40;;;20.10;49.70;;;;;;5012984;28;20025;-60
2023/11/20 10:34:27;;;;;;;3.50;1.52;;;20.10;49.70;;;;;;5011197;28;20066;-61
2023/11/20 10:37:10;;;;;;;2.72;0.95;;;20.10;49.70;;;;;;5029564;28;20045;-61
2023/11/20 10:39:37;;;;;;;3.40;1.48;;;20.10;49.60;;;;;;5024791;28;20462;-61
2023/11/20 10:42:04;;;;;;;3.17;1.17;;;20.10;49.60;;;;;;5031116;28;20341;-61
2023/11/20 10:44:35;;;;;;;5.25;1.67;;;20.10;49.60;;;;;;5013074;28;20123;-60
2023/11/20 10:47:03;;;;;;;3.50;1.30;;;20.10;49.60;;;;;;5029223;28;20033;-61
2023/11/20 10:49:33;;;;;;;3.25;1.27;;;20.10;49.60;;;;;;5012292;28;20025;-61
2023/11/20 10:52:03;;;;;;;5.50;1.33;;;20.10;49.60;;;;;;5012746;28;20041;-60
2023/11/20 10:54:45;;;;;;;5.28;1.50;;;20.10;49.50;;;;;;5014120;28;20037;-59
2023/11/20 10:57:15;;;;;;;5.38;1.40;;;20.10;49.50;;;;;;5031041;28;20030;-60
2023/11/20 10:59:41;;;;;;;3.20;1.10;;;20.10;49.50;;;;;;5026987;28;20017;-61
2023/11/20 11:02:17;;;;;;;2.92;1.13;;;20.10;49.50;;;;;;5008104;28;20029;-61
2023/11/20 11:04:51;;;;;;;3.25;1.25;;;20.10;49.40;;;;;;5027084;28;20029;-62
2023/11/20 11:07:24;;;;;;;4.50;1.52;;;20.10;49.40;;;;;;5025267;28;20687;-61
2023/11/20 11:09:51;;;;;;;2.78;1.13;;;20.10;49.40;;;;;;5022185;28;20026;-61
2023/11/20 11:12:21;;;;;;;4.25;1.40;;;20.10;49.40;;;;;;5012498;28;20032;-60
2023/11/20 11:14:47;;;;;;;3.40;1.20;;;20.10;49.40;;;;;;5030960;28;20155;-62
2023/11/20 11:17:21;;;;;;;3.80;1.40;;;20.10;49.40;;;;;;5027514;28;20060;-61
2023/11/20 11:19:59;;;;;;;2.67;1.23;;;20.10;49.30;;;;;;5007316;28;21176;-61
2023/11/20 11:22:34;;;;;;;3.67;1.40;;;20.10;49.30;;;;;;5026275;28;20342;-60
2023/11/20 11:25:03;;;;;;;2.30;1.20;;;20.10;49.30;;;;;;5010624;28;20029;-61
2023/11/20 11:27:55;;;;;;;3.58;1.20;;;20.10;49.20;;;;;;5028094;28;20488;-62
2023/11/20 11:30:23;;;;;;;5.32;1.50;;;20.20;49.10;;;;;;5026729;28;20436;-62
2023/11/20 11:32:58;;;;;;;4.13;1.55;;;20.10;49.10;;;;;;5029350;28;20326;-61
2023/11/20 11:35:27;;;;;;;;;;;20.10;49.00;;;;;;5040970;28;20476;-61
2023/11/20 11:38:21;;;;;;;3.65;1.20;;;20.20;49.10;;;;;;5045979;28;20141;-61
2023/11/20 11:41:12;;;;;;;4.45;1.35;;;20.10;49.10;;;;;;5046242;28;20021;-62
2023/11/20 11:44:17;;;;;;;3.53;1.35;;;20.10;49.10;;;;;;5023844;28;20423;-61
2023/11/20 11:46:43;;;;;;;3.70;1.40;;;20.20;49.10;;;;;;5038142;28;20040;-59
2023/11/20 11:49:20;;;;;;;3.15;1.17;;;20.10;49.10;;;;;;5040728;28;20040;-61
2023/11/20 11:51:49;;;;;;;2.53;0.95;;;20.10;49.10;;;;;;5039892;28;20387;-61
2023/11/20 11:54:16;;;;;;;2.58;1.00;;;20.20;49.10;;;;;;5053224;28;20029;-60
2023/11/20 11:57:09;;;;;;;3.10;1.25;;;20.10;49.00;;;;;;5041371;28;20109;-61
2023/11/20 11:59:43;;;;;;;4.15;1.40;;;20.20;49.00;;;;;;5041981;28;20076;-61
2023/11/20 12:02:17;;;;;;;3.53;1.27;;;20.10;48.90;;;;;;5032292;28;20044;-60
2023/11/20 12:04:55;;;;;;;3.67;1.40;;;20.20;48.90;;;;;;5047261;28;20112;-60
2023/11/20 12:07:36;;;;;;;3.03;0.95;;;20.20;48.80;;;;;;5023830;28;20396;-60
2023/11/20 12:10:04;;;;;;;3.38;0.93;;;20.20;48.80;;;;;;5046804;28;20036;-61
2023/11/20 12:12:50;;;;;;;2.00;1.10;;;20.20;48.80;;;;;;5044964;28;20135;-61
2023/11/20 12:15:47;;;;;;;3.60;1.08;;;20.20;48.70;;;;;;5046580;28;20036;-60
2023/11/20 12:18:24;;;;;;;2.25;1.10;;;20.20;48.70;;;;;;5043638;28;20029;-61
2023/11/20 12:20:49;;;;;;;3.10;1.10;;;20.10;48.60;;;;;;5042757;28;20017;-62
2023/11/20 12:23:31;;;;;;;2.72;1.20;;;20.20;48.70;;;;;;5047757;28;20021;-61
2023/11/20 12:26:12;;;;;;;4.35;1.60;;;20.10;48.50;;;;;;5048147;28;20443;-61
2023/11/20 12:28:42;;;;;;;4.20;1.40;;;20.20;48.50;;;;;;5037253;28;21739;-61
2023/11/20 12:31:12;;;;;;;3.67;1.00;;;20.20;48.60;;;;;;5044651;28;20029;-60
2023/11/20 12:33:43;;;;;;;5.18;1.30;;;20.10;48.40;;;;;;5061404;28;20398;-61
2023/11/20 12:36:11;;;;;;;4.20;1.00;;;20.20;48.40;;;;;;5040275;28;20053;-62
2023/11/20 12:38:38;;;;;;;3.85;1.23;;;20.20;48.40;;;;;;5025314;28;20399;-61
2023/11/20 12:41:07;;;;;;;2.25;0.95;;;20.20;48.30;;;;;;5044010;28;20033;-60
2023/11/20 12:43:35;;;;;;;3.67;1.10;;;20.20;48.30;;;;;;5036624;28;20021;-61
2023/11/20 12:46:05;;;;;;;4.30;1.20;;;20.20;48.30;;;;;;5041815;28;20051;-62
2023/11/20 12:48:36;;;;;;;2.53;0.88;;;20.20;48.20;;;;;;5025946;28;20025;-62
2023/11/20 12:51:03;;;;;;;3.33;1.00;;;20.20;48.10;;;;;;5034946;28;20041;-62
2023/11/20 12:53:29;;;;;;;2.60;1.00;;;20.20;48.10;;;;;;5038296;28;20029;-62